sensor_id;sensor_type;location;lat;lon;timestamp;P1;durP1;ratioP1;P2;durP2;ratioP2
68864;SDS011;55898;52.196;4.420;2022-08-03T00:01:33;2.78;;;2.10;;
68864;SDS011;55898;52.196;4.420;2022-08-03T00:04:00;3.08;;;2.31;;
68864;SDS011;55898;52.196;4.420;2022-08-03T00:06:25;3.13;;;2.34;;
68864;SDS011;55898;52.196;4.420;2022-08-03T00:08:51;3.03;;;2.25;;
68864;SDS011;55898;52.196;4.420;2022-08-03T00:11:17;3.01;;;2.20;;
68864;SDS011;55898;52.196;4.420;2022-08-03T00:13:42;3.15;;;2.25;;
68864;SDS011;55898;52.196;4.420;2022-08-03T00:16:08;3.33;;;2.37;;
68864;SDS011;55898;52.196;4.420;2022-08-03T00:18:35;3.21;;;2.31;;
68864;SDS011;55898;52.196;4.420;2022-08-03T00:21:01;2.83;;;2.09;;
68864;SDS011;55898;52.196;4.420;2022-08-03T00:23:28;2.69;;;1.99;;
68864;SDS011;55898;52.196;4.420;2022-08-03T00:25:53;3.02;;;2.21;;
68864;SDS011;55898;52.196;4.420;2022-08-03T00:28:19;3.15;;;2.30;;
68864;SDS011;55898;52.196;4.420;2022-08-03T00:30:44;3.08;;;2.23;;
68864;SDS011;55898;52.196;4.420;2022-08-03T00:33:10;3.14;;;2.27;;
68864;SDS011;55898;52.196;4.420;2022-08-03T00:35:35;2.77;;;2.01;;
68864;SDS011;55898;52.196;4.420;2022-08-03T00:38:01;2.70;;;1.98;;
68864;SDS011;55898;52.196;4.420;2022-08-03T00:40:27;2.86;;;2.16;;
68864;SDS011;55898;52.196;4.420;2022-08-03T00:42:54;3.37;;;2.49;;
68864;SDS011;55898;52.196;4.420;2022-08-03T00:45:24;2.69;;;1.99;;
68864;SDS011;55898;52.196;4.420;2022-08-03T00:47:51;2.68;;;2.01;;
68864;SDS011;55898;52.196;4.420;2022-08-03T00:50:17;2.39;;;1.83;;
68864;SDS011;55898;52.196;4.420;2022-08-03T00:52:44;2.90;;;2.18;;
68864;SDS011;55898;52.196;4.420;2022-08-03T00:55:11;3.32;;;2.42;;
68864;SDS011;55898;52.196;4.420;2022-08-03T00:57:37;2.97;;;2.18;;
68864;SDS011;55898;52.196;4.420;2022-08-03T01:00:04;3.34;;;2.46;;
68864;SDS011;55898;52.196;4.420;2022-08-03T01:02:31;3.22;;;2.37;;
68864;SDS011;55898;52.196;4.420;2022-08-03T01:04:57;3.02;;;2.24;;
68864;SDS011;55898;52.196;4.420;2022-08-03T01:13:16;3.55;;;2.55;;
68864;SDS011;55898;52.196;4.420;2022-08-03T01:18:30;3.99;;;2.85;;
68864;SDS011;55898;52.196;4.420;2022-08-03T01:21:09;3.36;;;2.47;;
68864;SDS011;55898;52.196;4.420;2022-08-03T01:32:36;3.39;;;2.54;;
68864;SDS011;55898;52.196;4.420;2022-08-03T01:35:21;3.59;;;2.66;;
68864;SDS011;55898;52.196;4.420;2022-08-03T01:37:57;3.69;;;2.75;;
68864;SDS011;55898;52.196;4.420;2022-08-03T01:40:27;3.53;;;2.65;;
68864;SDS011;55898;52.196;4.420;2022-08-03T01:42:58;3.30;;;2.54;;
68864;SDS011;55898;52.196;4.420;2022-08-03T01:45:27;3.07;;;2.41;;
68864;SDS011;55898;52.196;4.420;2022-08-03T01:47:55;3.02;;;2.35;;
68864;SDS011;55898;52.196;4.420;2022-08-03T01:50:23;2.82;;;2.19;;
68864;SDS011;55898;52.196;4.420;2022-08-03T01:52:53;3.41;;;2.57;;
68864;SDS011;55898;52.196;4.420;2022-08-03T01:55:22;3.69;;;2.69;;
68864;SDS011;55898;52.196;4.420;2022-08-03T01:57:52;3.31;;;2.46;;
68864;SDS011;55898;52.196;4.420;2022-08-03T02:00:21;3.42;;;2.61;;
68864;SDS011;55898;52.196;4.420;2022-08-03T02:02:49;3.14;;;2.35;;
68864;SDS011;55898;52.196;4.420;2022-08-03T02:05:18;3.40;;;2.55;;
68864;SDS011;55898;52.196;4.420;2022-08-03T02:07:45;3.16;;;2.35;;
68864;SDS011;55898;52.196;4.420;2022-08-03T02:10:13;3.48;;;2.55;;
68864;SDS011;55898;52.196;4.420;2022-08-03T02:12:43;3.60;;;2.63;;
68864;SDS011;55898;52.196;4.420;2022-08-03T02:15:10;3.65;;;2.64;;
68864;SDS011;55898;52.196;4.420;2022-08-03T02:17:39;3.43;;;2.54;;
68864;SDS011;55898;52.196;4.420;2022-08-03T02:20:07;3.62;;;2.68;;
68864;SDS011;55898;52.196;4.420;2022-08-03T02:22:38;3.01;;;2.23;;
68864;SDS011;55898;52.196;4.420;2022-08-03T02:25:09;4.11;;;2.98;;
68864;SDS011;55898;52.196;4.420;2022-08-03T02:27:38;3.72;;;2.69;;
68864;SDS011;55898;52.196;4.420;2022-08-03T02:30:19;4.12;;;3.01;;
68864;SDS011;55898;52.196;4.420;2022-08-03T02:32:54;4.18;;;3.09;;
68864;SDS011;55898;52.196;4.420;2022-08-03T02:35:23;3.38;;;2.63;;
68864;SDS011;55898;52.196;4.420;2022-08-03T02:37:55;3.31;;;2.66;;
68864;SDS011;55898;52.196;4.420;2022-08-03T02:40:26;3.04;;;2.43;;
68864;SDS011;55898;52.196;4.420;2022-08-03T02:42:54;2.75;;;2.22;;
68864;SDS011;55898;52.196;4.420;2022-08-03T02:45:24;2.77;;;2.22;;
68864;SDS011;55898;52.196;4.420;2022-08-03T02:47:54;2.89;;;2.30;;
68864;SDS011;55898;52.196;4.420;2022-08-03T02:50:23;3.30;;;2.63;;
68864;SDS011;55898;52.196;4.420;2022-08-03T02:52:52;2.76;;;2.19;;
68864;SDS011;55898;52.196;4.420;2022-08-03T02:55:21;3.07;;;2.37;;
68864;SDS011;55898;52.196;4.420;2022-08-03T02:57:50;3.82;;;2.86;;
68864;SDS011;55898;52.196;4.420;2022-08-03T03:00:18;3.57;;;2.72;;
68864;SDS011;55898;52.196;4.420;2022-08-03T03:02:44;3.72;;;2.81;;
68864;SDS011;55898;52.196;4.420;2022-08-03T03:05:10;3.66;;;2.73;;
68864;SDS011;55898;52.196;4.420;2022-08-03T03:07:37;3.39;;;2.52;;
68864;SDS011;55898;52.196;4.420;2022-08-03T03:10:05;3.61;;;2.73;;
68864;SDS011;55898;52.196;4.420;2022-08-03T03:12:32;3.52;;;2.67;;
68864;SDS011;55898;52.196;4.420;2022-08-03T03:15:02;3.38;;;2.54;;
68864;SDS011;55898;52.196;4.420;2022-08-03T03:17:30;3.81;;;2.80;;
68864;SDS011;55898;52.196;4.420;2022-08-03T03:19:57;4.41;;;3.21;;
68864;SDS011;55898;52.196;4.420;2022-08-03T03:22:24;4.07;;;2.97;;
68864;SDS011;55898;52.196;4.420;2022-08-03T03:24:51;4.09;;;3.03;;
68864;SDS011;55898;52.196;4.420;2022-08-03T03:27:19;3.64;;;2.73;;
68864;SDS011;55898;52.196;4.420;2022-08-03T03:29:46;3.44;;;2.61;;
68864;SDS011;55898;52.196;4.420;2022-08-03T03:32:12;3.52;;;2.69;;
68864;SDS011;55898;52.196;4.420;2022-08-03T03:34:38;3.05;;;2.45;;
68864;SDS011;55898;52.196;4.420;2022-08-03T03:37:04;2.88;;;2.34;;
68864;SDS011;55898;52.196;4.420;2022-08-03T03:39:30;2.56;;;2.10;;
68864;SDS011;55898;52.196;4.420;2022-08-03T03:41:56;2.55;;;2.11;;
68864;SDS011;55898;52.196;4.420;2022-08-03T03:44:25;2.74;;;2.29;;
68864;SDS011;55898;52.196;4.420;2022-08-03T03:46:52;2.93;;;2.40;;
68864;SDS011;55898;52.196;4.420;2022-08-03T03:49:17;3.04;;;2.50;;
68864;SDS011;55898;52.196;4.420;2022-08-03T03:51:43;3.23;;;2.61;;
68864;SDS011;55898;52.196;4.420;2022-08-03T03:54:09;3.17;;;2.51;;
68864;SDS011;55898;52.196;4.420;2022-08-03T03:56:34;3.14;;;2.47;;
68864;SDS011;55898;52.196;4.420;2022-08-03T03:59:00;3.13;;;2.48;;
68864;SDS011;55898;52.196;4.420;2022-08-03T04:01:25;2.93;;;2.35;;
68864;SDS011;55898;52.196;4.420;2022-08-03T04:03:51;3.26;;;2.55;;
68864;SDS011;55898;52.196;4.420;2022-08-03T04:06:16;3.53;;;2.75;;
68864;SDS011;55898;52.196;4.420;2022-08-03T04:09:02;3.36;;;2.69;;
68864;SDS011;55898;52.196;4.420;2022-08-03T04:11:57;3.29;;;2.62;;
68864;SDS011;55898;52.196;4.420;2022-08-03T04:14:27;3.57;;;2.80;;
68864;SDS011;55898;52.196;4.420;2022-08-03T04:16:58;2.81;;;2.23;;
68864;SDS011;55898;52.196;4.420;2022-08-03T04:19:28;3.16;;;2.51;;
68864;SDS011;55898;52.196;4.420;2022-08-03T04:22:01;3.09;;;2.55;;
68864;SDS011;55898;52.196;4.420;2022-08-03T04:24:37;3.36;;;2.78;;
68864;SDS011;55898;52.196;4.420;2022-08-03T04:27:11;2.75;;;2.35;;
68864;SDS011;55898;52.196;4.420;2022-08-03T04:29:41;2.99;;;2.58;;
68864;SDS011;55898;52.196;4.420;2022-08-03T04:32:11;2.83;;;2.44;;
68864;SDS011;55898;52.196;4.420;2022-08-03T04:34:38;2.61;;;2.28;;
68864;SDS011;55898;52.196;4.420;2022-08-03T04:37:04;2.47;;;2.15;;
68864;SDS011;55898;52.196;4.420;2022-08-03T04:39:35;3.05;;;2.64;;
68864;SDS011;55898;52.196;4.420;2022-08-03T04:42:04;3.03;;;2.59;;
68864;SDS011;55898;52.196;4.420;2022-08-03T04:44:39;2.71;;;2.34;;
68864;SDS011;55898;52.196;4.420;2022-08-03T04:47:08;2.91;;;2.49;;
68864;SDS011;55898;52.196;4.420;2022-08-03T04:49:35;2.77;;;2.34;;
68864;SDS011;55898;52.196;4.420;2022-08-03T04:52:02;2.92;;;2.54;;
68864;SDS011;55898;52.196;4.420;2022-08-03T04:54:29;2.83;;;2.43;;
68864;SDS011;55898;52.196;4.420;2022-08-03T04:56:54;2.81;;;2.38;;
68864;SDS011;55898;52.196;4.420;2022-08-03T04:59:20;3.07;;;2.57;;
68864;SDS011;55898;52.196;4.420;2022-08-03T05:01:45;3.17;;;2.62;;
68864;SDS011;55898;52.196;4.420;2022-08-03T05:04:11;3.40;;;2.83;;
68864;SDS011;55898;52.196;4.420;2022-08-03T05:06:36;3.14;;;2.58;;
68864;SDS011;55898;52.196;4.420;2022-08-03T05:09:02;3.35;;;2.80;;
68864;SDS011;55898;52.196;4.420;2022-08-03T05:11:28;3.31;;;2.73;;
68864;SDS011;55898;52.196;4.420;2022-08-03T05:13:53;3.01;;;2.53;;
68864;SDS011;55898;52.196;4.420;2022-08-03T05:16:19;3.36;;;2.88;;
68864;SDS011;55898;52.196;4.420;2022-08-03T05:18:44;3.28;;;2.77;;
68864;SDS011;55898;52.196;4.420;2022-08-03T05:21:10;3.31;;;2.82;;
68864;SDS011;55898;52.196;4.420;2022-08-03T05:23:38;3.45;;;2.95;;
68864;SDS011;55898;52.196;4.420;2022-08-03T05:26:04;3.82;;;3.21;;
68864;SDS011;55898;52.196;4.420;2022-08-03T05:28:29;3.44;;;2.92;;
68864;SDS011;55898;52.196;4.420;2022-08-03T05:30:55;3.43;;;2.92;;
68864;SDS011;55898;52.196;4.420;2022-08-03T05:33:21;3.34;;;2.82;;
68864;SDS011;55898;52.196;4.420;2022-08-03T05:35:46;3.74;;;3.04;;
68864;SDS011;55898;52.196;4.420;2022-08-03T05:38:12;3.39;;;2.82;;
68864;SDS011;55898;52.196;4.420;2022-08-03T05:40:37;3.00;;;2.60;;
68864;SDS011;55898;52.196;4.420;2022-08-03T05:43:03;3.29;;;2.84;;
68864;SDS011;55898;52.196;4.420;2022-08-03T05:45:28;3.49;;;2.98;;
68864;SDS011;55898;52.196;4.420;2022-08-03T05:47:54;3.42;;;2.86;;
68864;SDS011;55898;52.196;4.420;2022-08-03T05:50:19;3.16;;;2.71;;
68864;SDS011;55898;52.196;4.420;2022-08-03T05:52:45;3.70;;;3.16;;
68864;SDS011;55898;52.196;4.420;2022-08-03T05:55:11;3.30;;;2.77;;
68864;SDS011;55898;52.196;4.420;2022-08-03T05:57:38;3.35;;;2.77;;
68864;SDS011;55898;52.196;4.420;2022-08-03T06:00:05;3.42;;;2.77;;
68864;SDS011;55898;52.196;4.420;2022-08-03T06:02:33;3.28;;;2.69;;
68864;SDS011;55898;52.196;4.420;2022-08-03T06:05:00;3.63;;;2.98;;
68864;SDS011;55898;52.196;4.420;2022-08-03T06:07:25;3.38;;;2.76;;
68864;SDS011;55898;52.196;4.420;2022-08-03T06:09:51;3.94;;;3.15;;
68864;SDS011;55898;52.196;4.420;2022-08-03T06:12:16;3.74;;;3.06;;
68864;SDS011;55898;52.196;4.420;2022-08-03T06:14:42;3.60;;;3.00;;
68864;SDS011;55898;52.196;4.420;2022-08-03T06:17:07;3.36;;;2.83;;
68864;SDS011;55898;52.196;4.420;2022-08-03T06:19:33;3.58;;;2.98;;
68864;SDS011;55898;52.196;4.420;2022-08-03T06:21:58;4.03;;;3.20;;
68864;SDS011;55898;52.196;4.420;2022-08-03T06:24:24;3.78;;;2.99;;
68864;SDS011;55898;52.196;4.420;2022-08-03T06:26:49;4.11;;;3.24;;
68864;SDS011;55898;52.196;4.420;2022-08-03T06:29:15;3.76;;;3.00;;
68864;SDS011;55898;52.196;4.420;2022-08-03T06:31:41;4.14;;;3.24;;
68864;SDS011;55898;52.196;4.420;2022-08-03T06:34:06;4.05;;;3.23;;
68864;SDS011;55898;52.196;4.420;2022-08-03T06:36:31;3.82;;;3.18;;
68864;SDS011;55898;52.196;4.420;2022-08-03T06:38:57;3.84;;;3.24;;
68864;SDS011;55898;52.196;4.420;2022-08-03T06:41:27;3.82;;;3.20;;
68864;SDS011;55898;52.196;4.420;2022-08-03T06:43:53;4.50;;;3.60;;
68864;SDS011;55898;52.196;4.420;2022-08-03T06:46:19;4.10;;;3.36;;
68864;SDS011;55898;52.196;4.420;2022-08-03T06:48:45;4.21;;;3.52;;
68864;SDS011;55898;52.196;4.420;2022-08-03T06:51:10;3.88;;;3.44;;
68864;SDS011;55898;52.196;4.420;2022-08-03T06:53:36;3.71;;;3.31;;
68864;SDS011;55898;52.196;4.420;2022-08-03T06:56:05;3.61;;;3.38;;
68864;SDS011;55898;52.196;4.420;2022-08-03T06:58:31;3.94;;;3.69;;
68864;SDS011;55898;52.196;4.420;2022-08-03T07:00:57;3.93;;;3.64;;
68864;SDS011;55898;52.196;4.420;2022-08-03T07:03:22;3.62;;;3.39;;
68864;SDS011;55898;52.196;4.420;2022-08-03T07:05:48;3.81;;;3.62;;
68864;SDS011;55898;52.196;4.420;2022-08-03T07:08:15;3.46;;;3.44;;
68864;SDS011;55898;52.196;4.420;2022-08-03T07:10:41;3.98;;;3.97;;
68864;SDS011;55898;52.196;4.420;2022-08-03T07:13:07;3.77;;;3.77;;
68864;SDS011;55898;52.196;4.420;2022-08-03T07:15:33;3.70;;;3.70;;
68864;SDS011;55898;52.196;4.420;2022-08-03T07:17:59;3.99;;;3.99;;
68864;SDS011;55898;52.196;4.420;2022-08-03T07:20:24;4.33;;;4.33;;
68864;SDS011;55898;52.196;4.420;2022-08-03T07:22:50;4.14;;;4.14;;
68864;SDS011;55898;52.196;4.420;2022-08-03T07:25:16;4.26;;;4.26;;
68864;SDS011;55898;52.196;4.420;2022-08-03T07:27:45;3.96;;;3.96;;
68864;SDS011;55898;52.196;4.420;2022-08-03T07:30:11;4.30;;;4.30;;
68864;SDS011;55898;52.196;4.420;2022-08-03T07:32:38;4.57;;;4.57;;
68864;SDS011;55898;52.196;4.420;2022-08-03T07:35:04;4.33;;;4.33;;
68864;SDS011;55898;52.196;4.420;2022-08-03T07:37:31;4.01;;;4.01;;
68864;SDS011;55898;52.196;4.420;2022-08-03T07:40:01;4.19;;;4.19;;
68864;SDS011;55898;52.196;4.420;2022-08-03T07:42:28;3.18;;;3.14;;
68864;SDS011;55898;52.196;4.420;2022-08-03T07:44:56;3.18;;;2.88;;
68864;SDS011;55898;52.196;4.420;2022-08-03T07:47:23;3.04;;;2.67;;
68864;SDS011;55898;52.196;4.420;2022-08-03T07:49:55;3.46;;;2.99;;
68864;SDS011;55898;52.196;4.420;2022-08-03T07:52:20;3.73;;;3.20;;
68864;SDS011;55898;52.196;4.420;2022-08-03T07:55:22;4.69;;;3.90;;
68864;SDS011;55898;52.196;4.420;2022-08-03T07:58:05;4.19;;;3.40;;
68864;SDS011;55898;52.196;4.420;2022-08-03T08:00:47;3.73;;;3.15;;
68864;SDS011;55898;52.196;4.420;2022-08-03T08:03:14;3.70;;;3.17;;
68864;SDS011;55898;52.196;4.420;2022-08-03T08:05:40;3.25;;;2.81;;
68864;SDS011;55898;52.196;4.420;2022-08-03T08:08:06;3.24;;;2.81;;
68864;SDS011;55898;52.196;4.420;2022-08-03T08:10:32;3.70;;;3.14;;
68864;SDS011;55898;52.196;4.420;2022-08-03T08:12:58;3.52;;;2.99;;
68864;SDS011;55898;52.196;4.420;2022-08-03T08:15:27;3.56;;;2.99;;
68864;SDS011;55898;52.196;4.420;2022-08-03T08:17:54;3.47;;;2.92;;
68864;SDS011;55898;52.196;4.420;2022-08-03T08:20:21;3.29;;;2.81;;
68864;SDS011;55898;52.196;4.420;2022-08-03T08:22:58;3.61;;;3.03;;
68864;SDS011;55898;52.196;4.420;2022-08-03T08:25:24;3.67;;;3.07;;
68864;SDS011;55898;52.196;4.420;2022-08-03T08:27:50;3.71;;;3.08;;
68864;SDS011;55898;52.196;4.420;2022-08-03T08:30:18;3.65;;;3.21;;
68864;SDS011;55898;52.196;4.420;2022-08-03T08:32:46;3.57;;;3.21;;
68864;SDS011;55898;52.196;4.420;2022-08-03T08:35:12;3.17;;;2.86;;
68864;SDS011;55898;52.196;4.420;2022-08-03T08:37:38;3.12;;;2.68;;
68864;SDS011;55898;52.196;4.420;2022-08-03T08:40:05;2.88;;;2.45;;
68864;SDS011;55898;52.196;4.420;2022-08-03T08:42:32;3.19;;;2.67;;
68864;SDS011;55898;52.196;4.420;2022-08-03T08:44:59;3.29;;;2.71;;
68864;SDS011;55898;52.196;4.420;2022-08-03T08:47:25;3.44;;;2.77;;
68864;SDS011;55898;52.196;4.420;2022-08-03T08:49:54;3.26;;;2.56;;
68864;SDS011;55898;52.196;4.420;2022-08-03T08:52:26;3.67;;;2.91;;
68864;SDS011;55898;52.196;4.420;2022-08-03T08:54:54;3.69;;;3.00;;
68864;SDS011;55898;52.196;4.420;2022-08-03T08:57:30;3.52;;;2.89;;
68864;SDS011;55898;52.196;4.420;2022-08-03T09:00:02;3.23;;;2.69;;
68864;SDS011;55898;52.196;4.420;2022-08-03T09:02:39;3.08;;;2.54;;
68864;SDS011;55898;52.196;4.420;2022-08-03T09:05:09;3.27;;;2.68;;
68864;SDS011;55898;52.196;4.420;2022-08-03T09:07:37;3.16;;;2.60;;
68864;SDS011;55898;52.196;4.420;2022-08-03T09:10:04;3.20;;;2.55;;
68864;SDS011;55898;52.196;4.420;2022-08-03T09:12:35;3.61;;;2.83;;
68864;SDS011;55898;52.196;4.420;2022-08-03T09:17:48;3.18;;;2.58;;
68864;SDS011;55898;52.196;4.420;2022-08-03T09:20:15;3.12;;;2.54;;
68864;SDS011;55898;52.196;4.420;2022-08-03T09:22:58;3.18;;;2.57;;
68864;SDS011;55898;52.196;4.420;2022-08-03T09:25:32;3.05;;;2.48;;
68864;SDS011;55898;52.196;4.420;2022-08-03T09:30:32;2.91;;;2.41;;
68864;SDS011;55898;52.196;4.420;2022-08-03T09:32:59;3.57;;;2.86;;
68864;SDS011;55898;52.196;4.420;2022-08-03T09:35:30;3.62;;;2.83;;
68864;SDS011;55898;52.196;4.420;2022-08-03T09:38:10;3.44;;;2.75;;
68864;SDS011;55898;52.196;4.420;2022-08-03T09:40:38;3.25;;;2.63;;
68864;SDS011;55898;52.196;4.420;2022-08-03T09:43:04;3.06;;;2.54;;
68864;SDS011;55898;52.196;4.420;2022-08-03T09:45:32;2.88;;;2.39;;
68864;SDS011;55898;52.196;4.420;2022-08-03T09:50:56;3.27;;;2.60;;
68864;SDS011;55898;52.196;4.420;2022-08-03T09:53:23;3.44;;;2.73;;
68864;SDS011;55898;52.196;4.420;2022-08-03T09:58:27;3.85;;;3.00;;
68864;SDS011;55898;52.196;4.420;2022-08-03T10:03:32;3.84;;;3.20;;
68864;SDS011;55898;52.196;4.420;2022-08-03T10:06:15;3.68;;;3.11;;
68864;SDS011;55898;52.196;4.420;2022-08-03T10:08:43;3.61;;;3.02;;
68864;SDS011;55898;52.196;4.420;2022-08-03T10:11:31;3.49;;;3.01;;
68864;SDS011;55898;52.196;4.420;2022-08-03T10:14:00;3.47;;;2.97;;
68864;SDS011;55898;52.196;4.420;2022-08-03T10:16:34;3.29;;;2.88;;
68864;SDS011;55898;52.196;4.420;2022-08-03T10:19:02;2.83;;;2.47;;
68864;SDS011;55898;52.196;4.420;2022-08-03T10:21:33;3.10;;;2.74;;
68864;SDS011;55898;52.196;4.420;2022-08-03T10:24:04;3.40;;;3.00;;
68864;SDS011;55898;52.196;4.420;2022-08-03T10:26:33;2.88;;;2.56;;
68864;SDS011;55898;52.196;4.420;2022-08-03T10:29:05;3.23;;;2.78;;
68864;SDS011;55898;52.196;4.420;2022-08-03T10:31:39;3.01;;;2.59;;
68864;SDS011;55898;52.196;4.420;2022-08-03T10:34:21;2.92;;;2.51;;
68864;SDS011;55898;52.196;4.420;2022-08-03T10:36:48;2.72;;;2.41;;
68864;SDS011;55898;52.196;4.420;2022-08-03T10:39:20;2.86;;;2.56;;
68864;SDS011;55898;52.196;4.420;2022-08-03T10:41:48;2.87;;;2.57;;
68864;SDS011;55898;52.196;4.420;2022-08-03T10:44:18;2.63;;;2.36;;
68864;SDS011;55898;52.196;4.420;2022-08-03T10:46:47;3.02;;;2.63;;
68864;SDS011;55898;52.196;4.420;2022-08-03T10:49:15;3.22;;;2.73;;
68864;SDS011;55898;52.196;4.420;2022-08-03T10:51:43;3.31;;;2.71;;
68864;SDS011;55898;52.196;4.420;2022-08-03T10:57:59;2.89;;;2.45;;
68864;SDS011;55898;52.196;4.420;2022-08-03T11:00:19;3.25;;;2.76;;
68864;SDS011;55898;52.196;4.420;2022-08-03T11:05:38;3.64;;;3.10;;
68864;SDS011;55898;52.196;4.420;2022-08-03T11:10:57;3.74;;;3.20;;
68864;SDS011;55898;52.196;4.420;2022-08-03T11:13:29;3.60;;;3.17;;
68864;SDS011;55898;52.196;4.420;2022-08-03T11:15:59;3.84;;;3.34;;
68864;SDS011;55898;52.196;4.420;2022-08-03T11:18:26;3.17;;;2.82;;
68864;SDS011;55898;52.196;4.420;2022-08-03T11:20:53;3.35;;;2.92;;
68864;SDS011;55898;52.196;4.420;2022-08-03T11:26:18;2.85;;;2.46;;
68864;SDS011;55898;52.196;4.420;2022-08-03T11:28:47;3.10;;;2.67;;
68864;SDS011;55898;52.196;4.420;2022-08-03T11:39:39;3.24;;;2.61;;
68864;SDS011;55898;52.196;4.420;2022-08-03T11:44:46;2.64;;;2.20;;
68864;SDS011;55898;52.196;4.420;2022-08-03T11:47:13;2.64;;;2.23;;
68864;SDS011;55898;52.196;4.420;2022-08-03T11:49:54;2.97;;;2.51;;
68864;SDS011;55898;52.196;4.420;2022-08-03T11:52:21;2.93;;;2.43;;
68864;SDS011;55898;52.196;4.420;2022-08-03T11:54:49;2.77;;;2.25;;
68864;SDS011;55898;52.196;4.420;2022-08-03T11:57:29;2.80;;;2.24;;
68864;SDS011;55898;52.196;4.420;2022-08-03T11:59:56;3.36;;;2.63;;
68864;SDS011;55898;52.196;4.420;2022-08-03T12:02:22;3.02;;;2.35;;
68864;SDS011;55898;52.196;4.420;2022-08-03T12:04:57;2.93;;;2.30;;
68864;SDS011;55898;52.196;4.420;2022-08-03T12:07:27;3.03;;;2.38;;
68864;SDS011;55898;52.196;4.420;2022-08-03T12:10:10;3.67;;;2.74;;
68864;SDS011;55898;52.196;4.420;2022-08-03T12:12:38;3.32;;;2.47;;
68864;SDS011;55898;52.196;4.420;2022-08-03T12:15:05;3.23;;;2.43;;
68864;SDS011;55898;52.196;4.420;2022-08-03T12:17:35;3.16;;;2.37;;
68864;SDS011;55898;52.196;4.420;2022-08-03T12:20:03;3.20;;;2.46;;
68864;SDS011;55898;52.196;4.420;2022-08-03T12:22:35;3.04;;;2.35;;
68864;SDS011;55898;52.196;4.420;2022-08-03T12:25:03;2.89;;;2.26;;
68864;SDS011;55898;52.196;4.420;2022-08-03T12:27:32;3.10;;;2.43;;
68864;SDS011;55898;52.196;4.420;2022-08-03T12:29:58;2.79;;;2.16;;
68864;SDS011;55898;52.196;4.420;2022-08-03T12:32:29;3.14;;;2.38;;
68864;SDS011;55898;52.196;4.420;2022-08-03T12:34:56;3.45;;;2.65;;
68864;SDS011;55898;52.196;4.420;2022-08-03T12:37:28;3.04;;;2.36;;
68864;SDS011;55898;52.196;4.420;2022-08-03T12:39:58;2.62;;;2.07;;
68864;SDS011;55898;52.196;4.420;2022-08-03T12:42:43;2.90;;;2.28;;
68864;SDS011;55898;52.196;4.420;2022-08-03T12:45:22;3.42;;;2.65;;
68864;SDS011;55898;52.196;4.420;2022-08-03T12:47:53;3.61;;;2.75;;
68864;SDS011;55898;52.196;4.420;2022-08-03T12:50:24;3.01;;;2.36;;
68864;SDS011;55898;52.196;4.420;2022-08-03T12:52:50;3.32;;;2.61;;
68864;SDS011;55898;52.196;4.420;2022-08-03T12:55:19;2.91;;;2.35;;
68864;SDS011;55898;52.196;4.420;2022-08-03T12:57:46;2.98;;;2.47;;
68864;SDS011;55898;52.196;4.420;2022-08-03T13:00:13;2.93;;;2.40;;
68864;SDS011;55898;52.196;4.420;2022-08-03T13:02:40;3.64;;;2.91;;
68864;SDS011;55898;52.196;4.420;2022-08-03T13:05:08;3.33;;;2.71;;
68864;SDS011;55898;52.196;4.420;2022-08-03T13:07:42;3.31;;;2.70;;
68864;SDS011;55898;52.196;4.420;2022-08-03T13:10:10;2.98;;;2.46;;
68864;SDS011;55898;52.196;4.420;2022-08-03T13:12:50;2.83;;;2.30;;
68864;SDS011;55898;52.196;4.420;2022-08-03T13:15:17;3.22;;;2.60;;
68864;SDS011;55898;52.196;4.420;2022-08-03T13:17:43;2.70;;;2.23;;
68864;SDS011;55898;52.196;4.420;2022-08-03T13:20:09;2.70;;;2.17;;
68864;SDS011;55898;52.196;4.420;2022-08-03T13:22:35;2.89;;;2.32;;
68864;SDS011;55898;52.196;4.420;2022-08-03T13:25:01;2.63;;;2.11;;
68864;SDS011;55898;52.196;4.420;2022-08-03T13:27:28;2.96;;;2.31;;
68864;SDS011;55898;52.196;4.420;2022-08-03T13:29:55;3.52;;;2.67;;
68864;SDS011;55898;52.196;4.420;2022-08-03T13:32:21;3.31;;;2.40;;
68864;SDS011;55898;52.196;4.420;2022-08-03T13:34:48;3.24;;;2.34;;
68864;SDS011;55898;52.196;4.420;2022-08-03T13:37:13;3.59;;;2.66;;
68864;SDS011;55898;52.196;4.420;2022-08-03T13:39:40;3.59;;;2.67;;
68864;SDS011;55898;52.196;4.420;2022-08-03T13:42:06;3.38;;;2.56;;
68864;SDS011;55898;52.196;4.420;2022-08-03T13:44:32;3.73;;;2.76;;
68864;SDS011;55898;52.196;4.420;2022-08-03T13:46:58;3.28;;;2.44;;
68864;SDS011;55898;52.196;4.420;2022-08-03T13:49:27;3.41;;;2.53;;
68864;SDS011;55898;52.196;4.420;2022-08-03T13:51:54;2.95;;;2.22;;
68864;SDS011;55898;52.196;4.420;2022-08-03T13:54:20;3.28;;;2.44;;
68864;SDS011;55898;52.196;4.420;2022-08-03T13:56:46;2.99;;;2.17;;
68864;SDS011;55898;52.196;4.420;2022-08-03T13:59:20;3.28;;;2.40;;
68864;SDS011;55898;52.196;4.420;2022-08-03T14:01:47;2.98;;;2.23;;
68864;SDS011;55898;52.196;4.420;2022-08-03T14:04:14;2.73;;;2.10;;
68864;SDS011;55898;52.196;4.420;2022-08-03T14:06:40;2.80;;;2.17;;
68864;SDS011;55898;52.196;4.420;2022-08-03T14:09:05;2.97;;;2.25;;
68864;SDS011;55898;52.196;4.420;2022-08-03T14:11:31;3.33;;;2.47;;
68864;SDS011;55898;52.196;4.420;2022-08-03T14:13:56;3.39;;;2.48;;
68864;SDS011;55898;52.196;4.420;2022-08-03T14:16:22;3.45;;;2.50;;
68864;SDS011;55898;52.196;4.420;2022-08-03T14:18:47;3.26;;;2.37;;
68864;SDS011;55898;52.196;4.420;2022-08-03T14:21:13;3.35;;;2.43;;
68864;SDS011;55898;52.196;4.420;2022-08-03T14:23:38;3.28;;;2.36;;
68864;SDS011;55898;52.196;4.420;2022-08-03T14:26:04;3.19;;;2.32;;
68864;SDS011;55898;52.196;4.420;2022-08-03T14:28:31;3.32;;;2.44;;
68864;SDS011;55898;52.196;4.420;2022-08-03T14:30:57;3.59;;;2.62;;
68864;SDS011;55898;52.196;4.420;2022-08-03T14:33:23;3.49;;;2.55;;
68864;SDS011;55898;52.196;4.420;2022-08-03T14:35:49;3.30;;;2.43;;
68864;SDS011;55898;52.196;4.420;2022-08-03T14:38:16;3.74;;;2.72;;
68864;SDS011;55898;52.196;4.420;2022-08-03T14:40:42;3.66;;;2.65;;
68864;SDS011;55898;52.196;4.420;2022-08-03T14:43:08;3.26;;;2.39;;
68864;SDS011;55898;52.196;4.420;2022-08-03T14:45:33;2.98;;;2.26;;
68864;SDS011;55898;52.196;4.420;2022-08-03T14:47:59;2.72;;;2.13;;
68864;SDS011;55898;52.196;4.420;2022-08-03T14:50:25;2.33;;;1.85;;
68864;SDS011;55898;52.196;4.420;2022-08-03T14:52:52;3.01;;;2.32;;
68864;SDS011;55898;52.196;4.420;2022-08-03T14:55:18;3.28;;;2.52;;
68864;SDS011;55898;52.196;4.420;2022-08-03T14:57:44;2.83;;;2.17;;
68864;SDS011;55898;52.196;4.420;2022-08-03T15:00:09;2.62;;;2.04;;
68864;SDS011;55898;52.196;4.420;2022-08-03T15:02:35;2.67;;;2.09;;
68864;SDS011;55898;52.196;4.420;2022-08-03T15:05:01;2.88;;;2.23;;
68864;SDS011;55898;52.196;4.420;2022-08-03T15:07:26;2.49;;;1.95;;
68864;SDS011;55898;52.196;4.420;2022-08-03T15:09:52;2.60;;;2.05;;
68864;SDS011;55898;52.196;4.420;2022-08-03T15:12:17;2.84;;;2.24;;
68864;SDS011;55898;52.196;4.420;2022-08-03T15:14:43;2.53;;;2.00;;
68864;SDS011;55898;52.196;4.420;2022-08-03T15:17:08;2.66;;;2.11;;
68864;SDS011;55898;52.196;4.420;2022-08-03T15:19:34;2.24;;;1.76;;
68864;SDS011;55898;52.196;4.420;2022-08-03T15:22:00;2.42;;;1.88;;
68864;SDS011;55898;52.196;4.420;2022-08-03T15:24:25;2.40;;;1.88;;
68864;SDS011;55898;52.196;4.420;2022-08-03T15:26:51;2.60;;;2.05;;
68864;SDS011;55898;52.196;4.420;2022-08-03T15:29:17;2.36;;;1.86;;
68864;SDS011;55898;52.196;4.420;2022-08-03T15:31:43;2.61;;;2.02;;
68864;SDS011;55898;52.196;4.420;2022-08-03T15:34:08;2.88;;;2.22;;
68864;SDS011;55898;52.196;4.420;2022-08-03T15:36:35;2.09;;;1.64;;
68864;SDS011;55898;52.196;4.420;2022-08-03T15:39:01;2.71;;;2.10;;
68864;SDS011;55898;52.196;4.420;2022-08-03T15:41:27;2.32;;;1.83;;
68864;SDS011;55898;52.196;4.420;2022-08-03T15:43:52;2.18;;;1.73;;
68864;SDS011;55898;52.196;4.420;2022-08-03T15:46:18;2.31;;;1.83;;
68864;SDS011;55898;52.196;4.420;2022-08-03T15:48:43;2.23;;;1.77;;